Catalina King — WDC3343 — position and weather

sailwx.info

Track history (hours):
 
Tides and Currents Weather Stations Pressure Air Temp Water Temp Dewpoint Dewpoint Depression Visibility Wind Speed Wind Dir Waves Ship Positions

Catalina King

Owner: CATALINA CLASSIC CRUISES, INC., SAN DIEGO, CA. More information available from US FCC via Universal Licensing System and Coast Guard Vessel Documentation Center.

Last reported at 2017-Sep-24 21:40 UTC. Time now 2017-Sep-25 15:07 UTC.
Position N 33°45' W 118°12'.

Length 39 m; draft 3.3 m.

Type: Ship. MMSI: 367006280.

Date/timePositionNaut miles runAvg speedWind from/ knotsBaromVisibWave heightAir tempDewpointWater temp
2017-Sep-24 21:40N 33°45' W 118°12'0 0.0
2017-Sep-24 21:30N 33°45' W 118°12'4 8.8
2017-Sep-24 21:00N 33°41' W 118°11'612.3
2017-Sep-24 20:30N 33°35' W 118°15'612.3
2017-Sep-24 20:00N 33°30' W 118°18'612.1
2017-Sep-24 19:30N 33°25' W 118°22'2 3.7
2017-Sep-24 19:00N 33°23' W 118°21'1 1.0
2017-Sep-24 18:30N 33°23' W 118°21'612.1
2017-Sep-24 18:00N 33°29' W 118°18'611.9
2017-Sep-24 17:30N 33°34' W 118°15'611.7
2017-Sep-24 17:00N 33°40' W 118°12'510.5
2017-Sep-24 16:30N 33°45' W 118°11'1 1.5
2017-Sep-24 16:00N 33°45' W 118°12'0 0.0
2017-Sep-24 07:22N 33°45' W 118°12'0 0.0
2017-Sep-24 06:55N 33°45' W 118°12'0 0.0
2017-Sep-24 06:30N 33°45' W 118°12'0 0.0
2017-Sep-24 06:00N 33°45' W 118°12'2 3.0
2017-Sep-24 05:30N 33°45' W 118°10'1 2.3
2017-Sep-24 05:00N 33°44' W 118°10'1 1.4
2017-Sep-24 04:30N 33°44' W 118°09'1 2.2
2017-Sep-24 04:00N 33°45' W 118°08'2 3.5
2017-Sep-24 03:30N 33°45' W 118°10'1 2.5
2017-Sep-24 03:00N 33°45' W 118°12'0 0.0
2017-Sep-24 02:30N 33°45' W 118°12'0 0.0
2017-Sep-24 02:00N 33°45' W 118°12'0 0.0
2017-Sep-24 01:30N 33°45' W 118°12'0 0.0
2017-Sep-24 01:00N 33°45' W 118°12'0 0.0
2017-Sep-24 00:30N 33°45' W 118°12'  
2017-Sep-20 22:06N 33°45' W 118°12'0 0.0
2017-Sep-20 22:00N 33°45' W 118°12'4 7.1
2017-Sep-20 21:30N 33°42' W 118°11'612.3
2017-Sep-20 21:00N 33°36' W 118°14'1012.7
2017-Sep-20 20:11N 33°27' W 118°20'212.3
2017-Sep-20 19:59N 33°25' W 118°21'9 4.2
2017-Sep-20 17:49N 33°33' W 118°16'411.7
2017-Sep-20 17:29N 33°37' W 118°14'611.9
2017-Sep-20 17:00N 33°42' W 118°12'3 6.8
2017-Sep-20 16:30N 33°45' W 118°12'0 0.0
2017-Sep-20 15:59N 33°45' W 118°12'0 0.0
2017-Sep-19 03:49N 33°45' W 118°12'1 3.3
2017-Sep-19 03:23N 33°44' W 118°11'410.2
2017-Sep-19 02:59N 33°43' W 118°16'2 4.7
2017-Sep-19 02:28N 33°46' W 118°17'2 4.5
2017-Sep-19 02:00N 33°46' W 118°14'1 2.0
2017-Sep-19 01:30N 33°46' W 118°13'2 3.6
2017-Sep-19 01:00N 33°45' W 118°11'1 1.2
2017-Sep-19 00:28N 33°45' W 118°12'0 0.0
2017-Sep-18 21:25N 33°45' W 118°12'4 9.3
2017-Sep-18 20:57N 33°41' W 118°11'613.0
2017-Sep-18 20:30N 33°36' W 118°14'712.8
2017-Sep-18 19:58N 33°30' W 118°18'612.7
2017-Sep-18 19:30N 33°25' W 118°22'2 4.1
2017-Sep-18 19:00N 33°23' W 118°21'2 3.6
2017-Sep-18 18:30N 33°24' W 118°20'1012.2
2017-Sep-18 17:42N 33°33' W 118°16'211.9
2017-Sep-18 17:29N 33°36' W 118°15'612.1
2017-Sep-18 17:00N 33°41' W 118°12'4 7.9
2017-Sep-18 16:28N 33°45' W 118°12'0 0.0
2017-Sep-18 15:56N 33°45' W 118°12'0 0.0
2017-Sep-17 21:22N 33°45' W 118°12'3 7.8
2017-Sep-17 21:01N 33°43' W 118°11'612.0
2017-Sep-17 20:30N 33°37' W 118°14'612.2
2017-Sep-17 20:00N 33°32' W 118°17'612.0
2017-Sep-17 19:27N 33°26' W 118°21'2 3.8
2017-Sep-17 18:58N 33°24' W 118°22'2 2.8
2017-Sep-17 18:25N 33°23' W 118°21'911.9
2017-Sep-17 17:40N 33°31' W 118°17'411.9
2017-Sep-17 17:20N 33°34' W 118°15'411.8
2017-Sep-17 16:59N 33°38' W 118°13'711.3
2017-Sep-17 16:21N 33°45' W 118°11'0 0.0
2017-Sep-15 21:55N 33°45' W 118°12'4 8.8
2017-Sep-15 21:30N 33°42' W 118°11'612.2
2017-Sep-15 21:00N 33°36' W 118°14'1112.2
2017-Sep-15 20:06N 33°26' W 118°21'210.5
2017-Sep-15 19:52N 33°24' W 118°22'0 0.3
2017-Sep-15 19:27N 33°24' W 118°22'2 4.2
2017-Sep-15 19:00N 33°23' W 118°21'2 3.3
2017-Sep-15 18:26N 33°24' W 118°20'912.0
2017-Sep-15 17:43N 33°32' W 118°16'311.9
2017-Sep-15 17:29N 33°35' W 118°15'611.7
2017-Sep-15 17:00N 33°40' W 118°12'610.8
2017-Sep-15 16:30N 33°45' W 118°11'  
Track history (hours):
 
Tides and Currents Weather Stations Pressure Air Temp Water Temp Dewpoint Dewpoint Depression Visibility Wind Speed Wind Dir Waves Ship Positions

Catalina King

Owner: CATALINA CLASSIC CRUISES, INC., SAN DIEGO, CA. More information available from US FCC via Universal Licensing System and Coast Guard Vessel Documentation Center.

Last reported at 2017-Sep-24 21:40 UTC. Time now 2017-Sep-25 15:07 UTC.
Position N 33°45' W 118°12'.

Length 39 m; draft 3.3 m.

Type: Ship. MMSI: 367006280.

Date/timePositionNaut miles runAvg speedWind from/ knotsBaromVisibWave heightAir tempDewpointWater temp
2017-Sep-24 21:40N 33°45' W 118°12'0 0.0
2017-Sep-24 21:30N 33°45' W 118°12'4 8.8
2017-Sep-24 21:00N 33°41' W 118°11'612.3
2017-Sep-24 20:30N 33°35' W 118°15'612.3
2017-Sep-24 20:00N 33°30' W 118°18'612.1
2017-Sep-24 19:30N 33°25' W 118°22'2 3.7
2017-Sep-24 19:00N 33°23' W 118°21'1 1.0
2017-Sep-24 18:30N 33°23' W 118°21'612.1
2017-Sep-24 18:00N 33°29' W 118°18'611.9
2017-Sep-24 17:30N 33°34' W 118°15'611.7
2017-Sep-24 17:00N 33°40' W 118°12'510.5
2017-Sep-24 16:30N 33°45' W 118°11'1 1.5
2017-Sep-24 16:00N 33°45' W 118°12'0 0.0
2017-Sep-24 07:22N 33°45' W 118°12'0 0.0
2017-Sep-24 06:55N 33°45' W 118°12'0 0.0
2017-Sep-24 06:30N 33°45' W 118°12'0 0.0
2017-Sep-24 06:00N 33°45' W 118°12'2 3.0
2017-Sep-24 05:30N 33°45' W 118°10'1 2.3
2017-Sep-24 05:00N 33°44' W 118°10'1 1.4
2017-Sep-24 04:30N 33°44' W 118°09'1 2.2
2017-Sep-24 04:00N 33°45' W 118°08'2 3.5
2017-Sep-24 03:30N 33°45' W 118°10'1 2.5
2017-Sep-24 03:00N 33°45' W 118°12'0 0.0
2017-Sep-24 02:30N 33°45' W 118°12'0 0.0
2017-Sep-24 02:00N 33°45' W 118°12'0 0.0
2017-Sep-24 01:30N 33°45' W 118°12'0 0.0
2017-Sep-24 01:00N 33°45' W 118°12'0 0.0
2017-Sep-24 00:30N 33°45' W 118°12'  
2017-Sep-20 22:06N 33°45' W 118°12'0 0.0
2017-Sep-20 22:00N 33°45' W 118°12'4 7.1
2017-Sep-20 21:30N 33°42' W 118°11'612.3
2017-Sep-20 21:00N 33°36' W 118°14'1012.7
2017-Sep-20 20:11N 33°27' W 118°20'212.3
2017-Sep-20 19:59N 33°25' W 118°21'9 4.2
2017-Sep-20 17:49N 33°33' W 118°16'411.7
2017-Sep-20 17:29N 33°37' W 118°14'611.9
2017-Sep-20 17:00N 33°42' W 118°12'3 6.8
2017-Sep-20 16:30N 33°45' W 118°12'0 0.0
2017-Sep-20 15:59N 33°45' W 118°12'0 0.0
2017-Sep-19 03:49N 33°45' W 118°12'1 3.3
2017-Sep-19 03:23N 33°44' W 118°11'410.2
2017-Sep-19 02:59N 33°43' W 118°16'2 4.7
2017-Sep-19 02:28N 33°46' W 118°17'2 4.5
2017-Sep-19 02:00N 33°46' W 118°14'1 2.0
2017-Sep-19 01:30N 33°46' W 118°13'2 3.6
2017-Sep-19 01:00N 33°45' W 118°11'1 1.2
2017-Sep-19 00:28N 33°45' W 118°12'0 0.0
2017-Sep-18 21:25N 33°45' W 118°12'4 9.3
2017-Sep-18 20:57N 33°41' W 118°11'613.0
2017-Sep-18 20:30N 33°36' W 118°14'712.8
2017-Sep-18 19:58N 33°30' W 118°18'612.7
2017-Sep-18 19:30N 33°25' W 118°22'2 4.1
2017-Sep-18 19:00N 33°23' W 118°21'2 3.6
2017-Sep-18 18:30N 33°24' W 118°20'1012.2
2017-Sep-18 17:42N 33°33' W 118°16'211.9
2017-Sep-18 17:29N 33°36' W 118°15'612.1
2017-Sep-18 17:00N 33°41' W 118°12'4 7.9
2017-Sep-18 16:28N 33°45' W 118°12'0 0.0
2017-Sep-18 15:56N 33°45' W 118°12'0 0.0
2017-Sep-17 21:22N 33°45' W 118°12'3 7.8
2017-Sep-17 21:01N 33°43' W 118°11'612.0
2017-Sep-17 20:30N 33°37' W 118°14'612.2
2017-Sep-17 20:00N 33°32' W 118°17'612.0
2017-Sep-17 19:27N 33°26' W 118°21'2 3.8
2017-Sep-17 18:58N 33°24' W 118°22'2 2.8
2017-Sep-17 18:25N 33°23' W 118°21'911.9
2017-Sep-17 17:40N 33°31' W 118°17'411.9
2017-Sep-17 17:20N 33°34' W 118°15'411.8
2017-Sep-17 16:59N 33°38' W 118°13'711.3
2017-Sep-17 16:21N 33°45' W 118°11'0 0.0
2017-Sep-15 21:55N 33°45' W 118°12'4 8.8
2017-Sep-15 21:30N 33°42' W 118°11'612.2
2017-Sep-15 21:00N 33°36' W 118°14'1112.2
2017-Sep-15 20:06N 33°26' W 118°21'210.5
2017-Sep-15 19:52N 33°24' W 118°22'0 0.3
2017-Sep-15 19:27N 33°24' W 118°22'2 4.2
2017-Sep-15 19:00N 33°23' W 118°21'2 3.3
2017-Sep-15 18:26N 33°24' W 118°20'912.0
2017-Sep-15 17:43N 33°32' W 118°16'311.9
2017-Sep-15 17:29N 33°35' W 118°15'611.7
2017-Sep-15 17:00N 33°40' W 118°12'610.8
2017-Sep-15 16:30N 33°45' W 118°11'  

Dump ship's entire track history